createdAt,value
2023-04-13T00:00:38.632Z,34.92
2023-04-13T00:03:06.982Z,31.55
2023-04-13T00:05:34.678Z,35.90
2023-04-13T00:08:02.902Z,31.88
2023-04-13T00:10:41.146Z,37.58
2023-04-13T00:13:10.859Z,36.25
2023-04-13T00:15:42.037Z,36.40
2023-04-13T00:18:10.739Z,31.95
2023-04-13T00:20:38.802Z,32.83
2023-04-13T00:23:05.791Z,32.10
2023-04-13T00:25:32.746Z,35.85
2023-04-13T00:28:03.300Z,33.92
2023-04-13T00:30:30.391Z,31.85
2023-04-13T00:32:57.511Z,33.40
2023-04-13T00:35:27.837Z,31.65
2023-04-13T00:37:54.865Z,37.00
2023-04-13T00:40:24.630Z,33.45
2023-04-13T00:42:54.639Z,27.02
2023-04-13T00:45:22.131Z,31.17
2023-04-13T00:47:50.893Z,27.23
2023-04-13T00:50:20.706Z,28.23
2023-04-13T00:52:48.815Z,29.58
2023-04-13T00:55:20.894Z,27.40
2023-04-13T00:57:52.959Z,30.42
2023-04-13T01:00:21.998Z,27.73
2023-04-13T01:02:50.804Z,30.38
2023-04-13T01:05:18.523Z,30.15
2023-04-13T01:07:53.012Z,25.25
2023-04-13T01:10:46.950Z,27.52
2023-04-13T01:13:26.003Z,27.55
2023-04-13T01:16:11.160Z,25.65
2023-04-13T01:18:41.827Z,26.63
2023-04-13T01:21:14.970Z,26.95
2023-04-13T01:24:22.525Z,23.98
2023-04-13T01:26:52.413Z,29.75
2023-04-13T01:29:20.491Z,24.10
2023-04-13T01:31:50.767Z,21.65
2023-04-13T01:34:18.182Z,30.23
2023-04-13T01:36:46.194Z,28.95
2023-04-13T01:39:20.440Z,27.85
2023-04-13T01:41:51.661Z,27.15
2023-04-13T01:44:19.131Z,29.27
2023-04-13T01:46:50.460Z,25.52
2023-04-13T01:49:54.124Z,22.58
2023-04-13T01:52:34.279Z,25.30
2023-04-13T01:55:05.368Z,24.45
2023-04-13T01:57:37.135Z,24.52
2023-04-13T02:00:14.807Z,27.08
2023-04-13T02:05:12.238Z,22.85
2023-04-13T02:07:41.701Z,23.98
2023-04-13T02:10:09.328Z,21.55
2023-04-13T02:12:36.312Z,21.98
2023-04-13T02:15:06.684Z,25.50
2023-04-13T02:17:33.795Z,22.45
2023-04-13T02:20:01.106Z,26.65
2023-04-13T02:22:29.057Z,25.67
2023-04-13T02:24:56.722Z,28.05
2023-04-13T02:27:24.252Z,28.30
2023-04-13T02:29:52.474Z,32.55
2023-04-13T02:32:19.843Z,28.80
2023-04-13T02:34:47.646Z,25.95
2023-04-13T02:37:16.142Z,28.02
2023-04-13T02:39:43.544Z,31.42
2023-04-13T02:42:11.790Z,26.67
2023-04-13T02:44:38.807Z,27.48
2023-04-13T02:47:07.084Z,24.55
2023-04-13T02:49:34.148Z,23.58
2023-04-13T02:52:13.037Z,25.55
2023-04-13T02:54:54.698Z,23.98
2023-04-13T02:57:25.595Z,24.83
2023-04-13T02:59:54.477Z,21.17
2023-04-13T03:02:26.539Z,22.63
2023-04-13T03:04:54.979Z,24.67
2023-04-13T03:07:24.601Z,20.08
2023-04-13T03:09:53.195Z,22.80
2023-04-13T03:12:20.394Z,26.10
2023-04-13T03:14:49.792Z,23.73
2023-04-13T03:17:19.857Z,32.33
2023-04-13T03:19:49.245Z,27.45
2023-04-13T03:22:18.023Z,30.73
2023-04-13T03:24:47.306Z,35.33
2023-04-13T03:27:23.081Z,30.73
2023-04-13T03:29:51.716Z,32.83
2023-04-13T03:32:22.373Z,29.45
2023-04-13T03:34:55.906Z,29.50
2023-04-13T03:37:24.306Z,32.10
2023-04-13T03:39:51.960Z,33.97
2023-04-13T03:42:22.919Z,31.27
2023-04-13T03:44:54.916Z,30.95
2023-04-13T03:47:23.321Z,32.63
2023-04-13T03:49:51.453Z,28.40
2023-04-13T03:52:18.580Z,30.63
2023-04-13T03:54:52.962Z,32.67
2023-04-13T03:57:22.652Z,33.35
2023-04-13T03:59:50.462Z,30.00
2023-04-13T04:02:26.258Z,31.75
2023-04-13T04:04:53.752Z,34.38
2023-04-13T04:07:23.363Z,26.10
2023-04-13T04:09:50.907Z,33.03
2023-04-13T04:12:19.844Z,26.88
2023-04-13T04:14:46.783Z,29.50
2023-04-13T04:17:21.748Z,28.95
2023-04-13T04:19:49.106Z,30.35
2023-04-13T04:22:20.739Z,33.33
2023-04-13T04:24:47.657Z,28.30
2023-04-13T04:27:15.475Z,29.13
2023-04-13T04:29:49.749Z,27.67
2023-04-13T04:32:30.316Z,25.85
2023-04-13T04:34:57.568Z,28.88
2023-04-13T04:37:26.122Z,30.20
2023-04-13T04:40:09.999Z,31.55
2023-04-13T04:42:39.052Z,26.45
2023-04-13T04:45:14.112Z,29.33
2023-04-13T04:47:44.745Z,25.45
2023-04-13T04:52:47.692Z,33.13
2023-04-13T04:55:19.636Z,35.00
2023-04-13T04:57:46.687Z,32.95
2023-04-13T05:00:16.794Z,33.08
2023-04-13T05:02:52.872Z,38.53
2023-04-13T05:05:20.211Z,30.88
2023-04-13T05:07:50.012Z,36.50
2023-04-13T05:10:17.212Z,40.13
2023-04-13T05:12:51.569Z,36.30
2023-04-13T05:15:18.613Z,40.17
2023-04-13T05:17:46.788Z,44.25
2023-04-13T05:20:14.697Z,49.22
2023-04-13T05:22:50.762Z,40.72
2023-04-13T05:25:17.951Z,47.30
2023-04-13T05:27:46.927Z,40.78
2023-04-13T05:30:14.867Z,40.88
2023-04-13T05:32:43.816Z,45.70
2023-04-13T05:35:11.609Z,35.45
2023-04-13T05:37:40.131Z,40.28
2023-04-13T05:40:14.418Z,40.00
2023-04-13T05:42:42.909Z,35.60
2023-04-13T05:45:12.208Z,41.58
2023-04-13T05:47:54.773Z,41.42
2023-04-13T05:50:21.788Z,37.15
2023-04-13T05:52:48.746Z,37.78
2023-04-13T05:55:17.006Z,36.63
2023-04-13T05:57:49.148Z,39.22
2023-04-13T06:00:20.863Z,36.35
2023-04-13T06:02:59.442Z,36.17
2023-04-13T06:05:28.143Z,42.45
2023-04-13T06:07:55.099Z,32.75
2023-04-13T06:10:22.402Z,35.20
2023-04-13T06:12:50.543Z,36.22
2023-04-13T06:15:19.040Z,36.60
2023-04-13T06:17:50.771Z,42.90
2023-04-13T06:20:17.814Z,43.95
2023-04-13T06:22:44.831Z,44.80
2023-04-13T06:25:13.798Z,45.38
2023-04-13T06:27:43.653Z,43.25
2023-04-13T06:30:12.072Z,42.78
2023-04-13T06:32:39.566Z,42.10
2023-04-13T06:35:07.197Z,37.78
2023-04-13T06:37:40.514Z,41.13
2023-04-13T06:40:14.817Z,45.33
2023-04-13T06:42:49.048Z,42.92
2023-04-13T06:45:42.622Z,44.05
2023-04-13T06:48:15.376Z,43.00
2023-04-13T06:50:42.875Z,51.50
2023-04-13T06:53:09.848Z,48.25
2023-04-13T06:55:36.980Z,45.70
2023-04-13T06:58:04.030Z,43.28
2023-04-13T07:00:31.332Z,43.97
2023-04-13T07:03:01.925Z,39.42
2023-04-13T07:05:29.971Z,40.53
2023-04-13T07:08:03.786Z,38.95
2023-04-13T07:10:31.179Z,34.08
2023-04-13T07:13:03.161Z,42.35
2023-04-13T07:15:32.689Z,37.38
2023-04-13T07:17:59.763Z,35.67
2023-04-13T07:20:27.343Z,31.85
2023-04-13T07:22:54.392Z,34.00
2023-04-13T07:25:21.853Z,33.88
2023-04-13T07:27:49.492Z,29.90
2023-04-13T07:30:16.995Z,27.25
2023-04-13T07:32:46.597Z,27.27
2023-04-13T07:35:13.641Z,32.35
2023-04-13T07:37:42.972Z,23.33
2023-04-13T07:40:11.857Z,22.40
2023-04-13T07:42:40.803Z,19.98
2023-04-13T07:45:10.904Z,16.45
2023-04-13T07:47:38.487Z,12.77
2023-04-13T07:50:09.588Z,12.48
2023-04-13T07:52:37.968Z,13.82
2023-04-13T07:55:06.015Z,14.00
2023-04-13T07:57:36.718Z,12.43
2023-04-13T08:00:06.389Z,14.80
2023-04-13T08:02:41.375Z,13.70
2023-04-13T08:05:12.611Z,12.45
2023-04-13T08:07:40.571Z,12.43
2023-04-13T08:10:08.438Z,11.50
2023-04-13T08:12:35.441Z,12.60
2023-04-13T08:15:02.806Z,9.10
2023-04-13T08:17:29.849Z,17.65
2023-04-13T08:19:57.039Z,17.40
2023-04-13T08:22:24.080Z,21.55
2023-04-13T08:24:51.017Z,20.42
2023-04-13T08:27:19.432Z,16.05
2023-04-13T08:29:46.716Z,13.25
2023-04-13T08:32:16.350Z,14.15
2023-04-13T08:34:43.448Z,13.35
2023-04-13T08:37:11.691Z,9.68
2023-04-13T08:39:39.605Z,10.10
2023-04-13T08:42:08.020Z,12.13
2023-04-13T08:44:40.334Z,12.93
2023-04-13T08:47:10.695Z,13.13
2023-04-13T08:49:39.455Z,11.80
2023-04-13T08:52:29.961Z,12.13
2023-04-13T08:55:02.308Z,11.13
2023-04-13T08:57:32.544Z,13.00
2023-04-13T09:00:02.038Z,13.60
2023-04-13T09:02:36.662Z,10.63
2023-04-13T09:05:16.329Z,11.95
2023-04-13T09:07:53.762Z,11.48
2023-04-13T09:10:21.929Z,14.75
2023-04-13T09:12:50.898Z,12.13
2023-04-13T09:15:18.508Z,17.92
2023-04-13T09:18:12.723Z,27.13
2023-04-13T09:20:58.662Z,85.32
2023-04-13T09:23:26.100Z,13.13
2023-04-13T09:26:09.741Z,16.05
2023-04-13T09:28:47.839Z,13.88
2023-04-13T09:31:15.843Z,12.80
2023-04-13T09:33:47.795Z,11.50
2023-04-13T09:36:18.067Z,10.30
2023-04-13T09:38:50.602Z,11.60
2023-04-13T09:41:27.766Z,11.07
2023-04-13T09:43:54.735Z,12.20
2023-04-13T09:46:22.561Z,19.13
2023-04-13T09:49:04.969Z,12.02
2023-04-13T09:51:40.418Z,16.92
2023-04-13T09:54:08.104Z,9.57
2023-04-13T09:56:52.551Z,9.80
2023-04-13T09:59:19.672Z,11.50
2023-04-13T10:01:47.703Z,7.70
2023-04-13T10:04:16.424Z,9.65
2023-04-13T10:06:44.874Z,8.70
2023-04-13T10:09:11.983Z,8.55
2023-04-13T10:11:44.349Z,7.65
2023-04-13T10:14:37.149Z,7.28
2023-04-13T10:17:25.087Z,8.20
2023-04-13T10:19:55.416Z,6.95
2023-04-13T10:22:24.116Z,6.88
2023-04-13T10:24:55.206Z,7.30
2023-04-13T10:27:23.629Z,6.57
2023-04-13T10:29:50.922Z,6.65
2023-04-13T10:32:28.503Z,7.95
2023-04-13T10:34:57.714Z,5.63
2023-04-13T10:37:27.442Z,5.53
2023-04-13T10:40:08.980Z,6.05
2023-04-13T10:42:53.149Z,5.60
2023-04-13T10:45:28.575Z,4.00
2023-04-13T10:47:56.362Z,3.72
2023-04-13T10:50:24.932Z,6.90
2023-04-13T10:53:09.861Z,3.95
2023-04-13T10:55:36.842Z,4.25
2023-04-13T10:58:16.692Z,9.25
2023-04-13T11:00:47.046Z,4.35
2023-04-13T11:03:19.241Z,2.10
2023-04-13T11:05:57.773Z,1.15
2023-04-13T11:08:24.956Z,2.10
2023-04-13T11:10:53.456Z,2.65
2023-04-13T11:13:20.993Z,2.28
2023-04-13T11:15:49.670Z,1.40
2023-04-13T11:18:28.328Z,1.63
2023-04-13T11:20:55.429Z,1.58
2023-04-13T11:23:24.462Z,1.10
2023-04-13T11:26:01.188Z,1.20
2023-04-13T11:28:40.560Z,1.40
2023-04-13T11:31:07.843Z,8.80
2023-04-13T11:33:38.674Z,3.20
2023-04-13T11:36:07.995Z,5.00
2023-04-13T11:38:35.106Z,4.53
2023-04-13T11:41:16.404Z,3.88
2023-04-13T11:43:46.419Z,4.45
2023-04-13T11:46:16.237Z,3.55
2023-04-13T11:48:43.882Z,5.15
2023-04-13T11:51:11.597Z,3.63
2023-04-13T11:53:40.366Z,2.58
2023-04-13T11:56:07.993Z,3.05
2023-04-13T11:58:36.203Z,1.92
2023-04-13T12:01:13.753Z,2.72
2023-04-13T12:03:55.685Z,4.53
2023-04-13T12:06:29.936Z,4.85
2023-04-13T12:09:10.866Z,7.97
2023-04-13T12:11:46.031Z,2.73
2023-04-13T12:19:27.478Z,3.50
2023-04-13T12:21:57.040Z,3.08
2023-04-13T12:24:39.184Z,3.78
2023-04-13T12:29:40.639Z,1.50
2023-04-13T12:32:15.035Z,0.60
2023-04-13T12:34:43.372Z,1.90
2023-04-13T12:37:13.439Z,4.57
2023-04-13T12:39:42.245Z,1.20
2023-04-13T12:42:09.181Z,3.17
2023-04-13T12:44:36.217Z,3.22
2023-04-13T12:47:03.327Z,2.13
2023-04-13T12:49:30.384Z,1.13
2023-04-13T12:51:57.524Z,4.30
2023-04-13T12:54:24.678Z,1.85
2023-04-13T12:56:52.273Z,1.83
2023-04-13T12:59:22.092Z,4.22
2023-04-13T13:01:49.632Z,3.50
2023-04-13T13:04:17.200Z,2.28
2023-04-13T13:06:44.232Z,1.67
2023-04-13T13:09:11.179Z,3.38
2023-04-13T13:11:38.212Z,2.03
2023-04-13T13:14:05.578Z,1.13
2023-04-13T13:16:32.751Z,2.47
2023-04-13T13:19:00.857Z,3.08
2023-04-13T13:21:28.339Z,3.25
2023-04-13T13:23:55.333Z,3.58
2023-04-13T13:26:24.361Z,1.67
2023-04-13T13:28:54.402Z,2.78
2023-04-13T13:31:21.693Z,0.88
2023-04-13T13:33:48.737Z,2.28
2023-04-13T13:36:16.214Z,2.63
2023-04-13T13:38:43.742Z,2.42
2023-04-13T13:41:11.077Z,3.67
2023-04-13T13:43:38.830Z,3.92
2023-04-13T13:46:06.709Z,6.93
2023-04-13T13:48:36.097Z,4.65
2023-04-13T13:51:28.306Z,3.72
2023-04-13T13:53:56.639Z,3.88
2023-04-13T13:56:23.839Z,6.38
2023-04-13T13:58:50.758Z,2.15
2023-04-13T14:01:18.042Z,10.38
2023-04-13T14:03:45.199Z,3.63
2023-04-13T14:06:12.512Z,4.75
2023-04-13T14:08:39.605Z,2.28
2023-04-13T14:11:06.682Z,5.25
2023-04-13T14:13:33.632Z,5.22
2023-04-13T14:16:00.911Z,5.07
2023-04-13T14:18:27.914Z,1.85
2023-04-13T14:20:54.930Z,6.38
2023-04-13T14:23:21.923Z,3.30
2023-04-13T14:25:48.921Z,5.72
2023-04-13T14:28:17.635Z,2.58
2023-04-13T14:30:45.176Z,1.52
2023-04-13T14:33:14.663Z,4.40
2023-04-13T14:35:41.761Z,8.55
2023-04-13T14:38:09.707Z,1.13
2023-04-13T14:40:36.826Z,4.75
2023-04-13T14:43:03.822Z,3.28
2023-04-13T14:45:31.278Z,4.95
2023-04-13T14:47:58.212Z,4.18
2023-04-13T14:50:25.365Z,8.43
2023-04-13T14:52:52.417Z,9.40
2023-04-13T14:55:19.772Z,4.68
2023-04-13T14:57:47.286Z,3.35
2023-04-13T15:00:38.268Z,4.78
2023-04-13T15:03:09.537Z,2.00
2023-04-13T15:05:40.486Z,2.05
2023-04-13T15:08:08.776Z,7.47
2023-04-13T15:10:35.850Z,5.50
2023-04-13T15:13:03.902Z,2.55
2023-04-13T15:15:32.583Z,10.18
2023-04-13T15:18:02.414Z,4.78
2023-04-13T15:20:30.144Z,2.47
2023-04-13T15:22:58.052Z,3.13
2023-04-13T15:25:25.879Z,4.15
2023-04-13T15:27:54.695Z,4.30
2023-04-13T15:30:27.326Z,3.28
2023-04-13T15:32:59.321Z,1.80
2023-04-13T15:35:27.473Z,4.77
2023-04-13T15:37:55.165Z,2.20
2023-04-13T15:40:25.030Z,1.10
2023-04-13T15:42:52.004Z,2.38
2023-04-13T15:45:19.139Z,1.17
2023-04-13T15:47:46.385Z,1.70
2023-04-13T15:50:16.045Z,1.77
2023-04-13T15:52:43.989Z,3.13
2023-04-13T15:55:10.932Z,3.70
2023-04-13T15:57:38.294Z,7.25
2023-04-13T16:00:07.699Z,4.90
2023-04-13T16:02:35.884Z,2.88
2023-04-13T16:05:03.638Z,2.20
2023-04-13T16:07:30.630Z,5.32
2023-04-13T16:09:58.329Z,5.07
2023-04-13T16:12:32.474Z,2.88
2023-04-13T16:15:03.854Z,2.85
2023-04-13T16:17:31.951Z,1.20
2023-04-13T16:20:18.184Z,1.52
2023-04-13T16:22:48.512Z,1.90
2023-04-13T16:25:19.237Z,2.05
2023-04-13T16:27:48.459Z,5.18
2023-04-13T16:30:17.737Z,1.80
2023-04-13T16:32:46.478Z,1.33
2023-04-13T16:35:13.946Z,1.77
2023-04-13T16:37:42.418Z,1.35
2023-04-13T16:40:13.119Z,3.05
2023-04-13T16:42:40.749Z,1.80
2023-04-13T16:45:12.863Z,1.25
2023-04-13T16:50:11.178Z,8.50
2023-04-13T16:52:40.895Z,0.73
2023-04-13T16:55:08.958Z,1.75
2023-04-13T16:57:35.908Z,7.20
2023-04-13T17:00:07.231Z,0.80
2023-04-13T17:02:34.566Z,3.20
2023-04-13T17:05:01.906Z,1.20
2023-04-13T17:07:28.968Z,3.42
2023-04-13T17:09:56.012Z,0.75
2023-04-13T17:12:23.504Z,1.20
2023-04-13T17:14:50.586Z,6.18
2023-04-13T17:17:17.601Z,2.65
2023-04-13T17:19:44.634Z,2.13
2023-04-13T17:22:11.770Z,1.98
2023-04-13T17:24:38.934Z,1.52
2023-04-13T17:27:06.564Z,3.00
2023-04-13T17:29:36.331Z,1.05
2023-04-13T17:32:03.886Z,4.70
2023-04-13T17:34:31.026Z,1.85
2023-04-13T17:36:58.412Z,2.47
2023-04-13T17:39:25.359Z,4.43
2023-04-13T17:41:52.338Z,3.83
2023-04-13T17:44:19.772Z,1.98
2023-04-13T17:46:47.192Z,4.20
2023-04-13T17:49:16.686Z,4.35
2023-04-13T17:51:49.611Z,2.15
2023-04-13T17:54:16.590Z,6.10
2023-04-13T17:56:43.597Z,7.07
2023-04-13T17:59:14.757Z,10.52
2023-04-13T18:01:45.808Z,7.25
2023-04-13T18:04:14.618Z,5.95
2023-04-13T18:06:41.872Z,5.20
2023-04-13T18:09:09.746Z,5.47
2023-04-13T18:11:36.759Z,5.82
2023-04-13T18:14:03.884Z,7.57
2023-04-13T18:16:34.436Z,9.48
2023-04-13T18:19:01.897Z,9.23
2023-04-13T18:21:32.476Z,4.03
2023-04-13T18:24:01.769Z,7.50
2023-04-13T18:26:29.344Z,6.63
2023-04-13T18:28:56.333Z,2.40
2023-04-13T18:31:23.573Z,3.55
2023-04-13T18:33:50.575Z,4.50
2023-04-13T18:36:18.391Z,2.72
2023-04-13T18:38:46.222Z,3.90
2023-04-13T18:41:13.614Z,2.03
2023-04-13T18:43:40.841Z,2.92
2023-04-13T18:46:08.202Z,2.33
2023-04-13T18:48:36.039Z,2.55
2023-04-13T18:51:03.615Z,3.83
2023-04-13T18:53:31.080Z,2.13
2023-04-13T18:55:58.947Z,1.98
2023-04-13T18:58:27.229Z,3.58
2023-04-13T19:00:55.056Z,3.05
2023-04-13T19:03:23.600Z,2.42
2023-04-13T19:05:50.673Z,3.70
2023-04-13T19:08:17.774Z,0.98
2023-04-13T19:10:45.136Z,2.75
2023-04-13T19:13:14.273Z,2.03
2023-04-13T19:15:41.436Z,2.33
2023-04-13T19:18:11.239Z,1.60
2023-04-13T19:20:38.404Z,0.98
2023-04-13T19:23:06.479Z,3.10
2023-04-13T19:25:33.509Z,4.25
2023-04-13T19:28:00.717Z,1.52
2023-04-13T19:30:27.856Z,1.48
2023-04-13T19:32:54.926Z,1.17
2023-04-13T19:35:24.434Z,2.28
2023-04-13T19:37:51.482Z,2.08
2023-04-13T19:40:18.847Z,2.25
2023-04-13T19:42:46.772Z,1.10
2023-04-13T19:45:14.891Z,1.00
2023-04-13T19:47:42.548Z,1.52
2023-04-13T19:50:12.490Z,1.55
2023-04-13T19:52:41.329Z,0.45
2023-04-13T19:55:10.508Z,5.65
2023-04-13T19:57:42.015Z,1.95
2023-04-13T20:00:20.560Z,2.10
2023-04-13T20:02:49.832Z,2.85
2023-04-13T20:05:18.087Z,0.55
2023-04-13T20:07:45.036Z,1.63
2023-04-13T20:10:12.790Z,2.88
2023-04-13T20:12:39.810Z,6.38
2023-04-13T20:15:07.558Z,2.60
2023-04-13T20:17:34.659Z,2.00
2023-04-13T20:20:01.727Z,1.17
2023-04-13T20:22:29.084Z,2.25
2023-04-13T20:24:56.000Z,1.75
2023-04-13T20:27:23.175Z,2.53
2023-04-13T20:29:51.604Z,1.70
2023-04-13T20:32:18.639Z,2.28
2023-04-13T20:34:45.632Z,2.90
2023-04-13T20:37:14.133Z,1.70
2023-04-13T20:39:49.922Z,1.42
2023-04-13T20:42:20.816Z,1.90
2023-04-13T20:44:47.749Z,4.15
2023-04-13T20:47:15.201Z,0.82
2023-04-13T20:49:47.182Z,1.42
2023-04-13T20:52:14.189Z,2.58
2023-04-13T20:54:42.409Z,0.40
2023-04-13T20:57:09.555Z,1.20
2023-04-13T20:59:37.421Z,0.50
2023-04-13T21:02:05.444Z,0.50
2023-04-13T21:04:32.461Z,0.85
2023-04-13T21:07:02.367Z,0.90
2023-04-13T21:09:30.340Z,0.50
2023-04-13T21:11:57.950Z,1.05
2023-04-13T21:14:25.497Z,2.40
2023-04-13T21:16:53.576Z,0.77
2023-04-13T21:19:21.258Z,1.00
2023-04-13T21:21:49.767Z,1.05
2023-04-13T21:24:16.893Z,1.67
2023-04-13T21:26:43.853Z,0.50
2023-04-13T21:29:11.096Z,0.95
2023-04-13T21:31:38.602Z,0.75
2023-04-13T21:34:05.816Z,1.30
2023-04-13T21:39:03.566Z,1.02
2023-04-13T21:41:30.476Z,0.98
2023-04-13T21:43:57.440Z,1.05
2023-04-13T21:46:25.103Z,0.80
2023-04-13T21:48:52.612Z,1.23
2023-04-13T21:51:19.779Z,1.10
2023-04-13T21:53:48.859Z,1.10
2023-04-13T21:56:15.884Z,4.55
2023-04-13T21:58:45.121Z,4.75
2023-04-13T22:01:13.326Z,2.53
2023-04-13T22:03:42.613Z,1.48
2023-04-13T22:06:11.154Z,1.85
2023-04-13T22:08:38.617Z,1.13
2023-04-13T22:11:05.818Z,2.55
2023-04-13T22:13:33.054Z,3.42
2023-04-13T22:16:00.056Z,1.00
2023-04-13T22:18:27.738Z,1.67
2023-04-13T22:20:54.703Z,0.90
2023-04-13T22:23:22.157Z,3.13
2023-04-13T22:25:54.330Z,7.05
2023-04-13T22:28:21.354Z,1.75
2023-04-13T22:30:48.850Z,0.93
2023-04-13T22:33:16.521Z,2.63
2023-04-13T22:35:44.415Z,3.33
2023-04-13T22:38:11.537Z,2.67
2023-04-13T22:40:39.151Z,1.27
2023-04-13T22:43:07.586Z,1.70
2023-04-13T22:45:34.692Z,1.98
2023-04-13T22:48:01.750Z,3.60
2023-04-13T22:50:29.115Z,1.83
2023-04-13T22:52:57.163Z,2.53
2023-04-13T22:55:24.174Z,4.40
2023-04-13T22:57:51.203Z,2.28
2023-04-13T23:00:21.129Z,3.72
2023-04-13T23:02:50.722Z,4.47
2023-04-13T23:05:18.113Z,1.70
2023-04-13T23:07:45.089Z,2.25
2023-04-13T23:10:12.184Z,1.85
2023-04-13T23:12:39.954Z,4.22
2023-04-13T23:15:08.273Z,30.50
2023-04-13T23:17:35.620Z,18.95
2023-04-13T23:20:07.117Z,6.70
2023-04-13T23:22:34.625Z,3.97
2023-04-13T23:25:01.559Z,4.82
2023-04-13T23:27:28.532Z,2.83
2023-04-13T23:29:55.560Z,1.85
2023-04-13T23:32:22.596Z,3.40
2023-04-13T23:34:51.175Z,3.97
2023-04-13T23:37:18.249Z,2.97
2023-04-13T23:39:45.142Z,1.92
2023-04-13T23:42:12.343Z,2.63
2023-04-13T23:44:39.346Z,1.63
2023-04-13T23:47:07.464Z,3.63
2023-04-13T23:49:34.761Z,3.88
2023-04-13T23:52:02.910Z,4.50
2023-04-13T23:54:30.062Z,9.10
2023-04-13T23:56:57.645Z,3.53
2023-04-13T23:59:25.019Z,3.17
